Tropical Cyclones
[Index]
Main Index Home Page Stock Weather Photos Extreme Storms Discussion Storm News and Storm Chasing Reports Tropical Cyclones / Hurricanes / Typhoons Weather Data and Links Wild Fires / Bushfires Weather Observation Techniques Weather Picture Catalogue Tornado Pictures and Reports Stock Video Footage and DVDs for sale
Season 1970-1971 Tropical Cyclone FIONA Track Map
Season 1970-1971 Summaries: [BoM-AU] [JTWC-AU] [JTWC-SIO] [JTWC-SPAC] [JTWC-SH]
<<- Previous TC | JTWC 1970-1971 Season | Next TC ->>

click for intensity scale information  Lat/long Grid: Show Hide

 Date Labels: Show Hide

Joint Typhoon Warning Centre Cyclone Data

Name: FIONA
Number: 766 / 7121

16 Feb 1971 12:00 UTC to 28 Feb 1971 06:00 UTC

    date/time    lat    long     hPa   cat  kts
1971-02-16 12   16.0   141.4                  05          
1971-02-16 18   16.0   141.2                  10          
1971-02-17 00   16.0   140.7                  10          
1971-02-17 06   16.0   140.1                  15          
1971-02-17 12   16.0   139.4                  15          
1971-02-17 18   15.8   138.7                  20          
1971-02-18 00   15.5   138.0                  25          
1971-02-18 06   14.7   137.4                  25          
1971-02-18 12   13.9   137.6                  25          
1971-02-18 18   13.6   138.7                  20          
1971-02-19 00   14.2   139.9                  20          
1971-02-19 06   15.2   140.8                  35          
1971-02-19 12   16.3   141.7            1     45          
1971-02-19 18   17.4   142.4            1     45          
1971-02-20 00   18.5   143.3            1     45          
1971-02-20 06   19.5   144.9                  35          
1971-02-20 12   20.5   146.5                  30          
1971-02-20 18   21.4   147.9                  35          
1971-02-21 00   22.2   149.2            1     40          
1971-02-21 06   22.8   150.4            1     50          
1971-02-21 12   23.4   151.2            1     50          
1971-02-21 18   24.0   151.7            1     45          
1971-02-22 00   24.4   152.2            1     40          
1971-02-22 06   24.4   152.7                  35          
1971-02-22 12   24.3   153.3                  30          
1971-02-22 18   24.1   154.3                  30          
1971-02-23 00   24.0   155.4                  35          
1971-02-23 06   23.7   156.3                  35          
1971-02-23 12   23.4   157.1                  35          
1971-02-23 18   23.0   158.0                  35          
1971-02-24 00   22.7   158.7                  35          
1971-02-24 06   22.4   159.4                  35          
1971-02-24 12   22.3   159.9                  35          
1971-02-24 18   22.1   160.2                  35          
1971-02-25 00   22.0   160.6                  35          
1971-02-25 06   21.7   161.0                  35          
1971-02-25 12   21.6   161.3                  35          
1971-02-25 18   21.5   161.6                  30          
1971-02-26 00   21.4   161.9                  30          
1971-02-26 06   21.3   162.2                  30          
1971-02-26 12   21.2   162.5                  30          
1971-02-26 18   21.0   162.8                  25          
1971-02-27 00   20.8   163.0                  20          
1971-02-27 06   20.6   163.1                  30          
1971-02-27 12   20.5   163.1                  35          
1971-02-27 18   20.4   162.9                  25          
1971-02-28 00   20.3   162.5                  20          
1971-02-28 06   20.5   162.2                  20          
Winds are 1-min average.

Tropical cyclone tracks developed by Michael Bath using data from the Joint Typhoon Warning Centre Best Tracks and Google Maps.


[Australian Severe Weather index] [Copyright Notice] [Email Contacts] [Search This Site] [Privacy Policy]
Document: tropical_cyclone_fiona.htm Updated: 18 September 2016